Time;durP1;ratioP1;P1;durP2;ratioP2;P2;SDS_P1;SDS_P2;PMS_P1;PMS_P2;Temp;Humidity;BMP_temperature;BMP_pressure;BME280_temperature;BME280_humidity;BME280_pressure;Samples;Min_cycle;Max_cycle;Signal;HPM_P1;HPM_P2
2022/02/06 00:00:06;;;;;;;15.82;2.38;;;;;;;;;;2076169;28;20030;-63
2022/02/06 00:01:25;;;;;;;8.18;1.98;;;;;;;;;;2076708;27;20022;-64
2022/02/06 00:02:46;;;;;;;13.50;2.50;;;;;;;;;;2074954;28;20514;-64
2022/02/06 00:04:05;;;;;;;15.77;3.05;;;;;;;;;;2075972;28;20033;-64
2022/02/06 00:05:24;;;;;;;12.63;2.20;;;;;;;;;;2075274;28;20037;-64
2022/02/06 00:06:43;;;;;;;12.93;2.00;;;;;;;;;;2076136;28;20392;-64
2022/02/06 00:08:07;;;;;;;10.55;1.75;;;;;;;;;;2076376;28;20506;-64
2022/02/06 00:09:26;;;;;;;9.70;1.73;;;;;;;;;;2076445;28;20026;-66
2022/02/06 00:10:45;;;;;;;10.85;2.08;;;;;;;;;;2076050;28;20446;-64
2022/02/06 00:12:04;;;;;;;10.80;2.10;;;;;;;;;;2075555;28;20395;-64
2022/02/06 00:13:23;;;;;;;10.93;1.65;;;;;;;;;;2075139;28;20022;-63
2022/02/06 00:14:42;;;;;;;8.82;2.13;;;;;;;;;;2076331;28;20022;-64
2022/02/06 00:16:01;;;;;;;12.75;2.40;;;;;;;;;;2076449;28;20025;-63
2022/02/06 00:17:20;;;;;;;12.25;2.30;;;;;;;;;;2075186;28;20081;-64
2022/02/06 00:18:42;;;;;;;6.20;1.40;;;;;;;;;;2075531;28;20433;-64
2022/02/06 00:20:01;;;;;;;10.20;2.15;;;;;;;;;;2076466;28;20053;-64
2022/02/06 00:21:21;;;;;;;15.85;2.58;;;;;;;;;;2076125;28;20487;-64
2022/02/06 00:22:44;;;;;;;8.00;2.00;;;;;;;;;;2076066;28;20045;-63
2022/02/06 00:24:06;;;;;;;11.30;1.70;;;;;;;;;;2074723;28;20651;-63
2022/02/06 00:26:55;;;;;;;7.38;1.90;;;;;;;;;;2076255;28;20108;-64
2022/02/06 00:29:50;;;;;;;10.98;2.15;;;;;;;;;;2075818;28;20042;-63
2022/02/06 00:31:30;;;;;;;9.20;2.15;;;;;;;;;;2075823;28;20030;-63
2022/02/06 00:32:56;;;;;;;8.80;1.77;;;;;;;;;;2076009;28;20033;-63
2022/02/06 00:40:18;;;;;;;6.28;1.42;;;;;;;;;;2075744;28;20559;-63
2022/02/06 00:41:37;;;;;;;10.43;2.17;;;;;;;;;;2076001;28;20034;-63
2022/02/06 00:42:56;;;;;;;12.50;2.33;;;;;;;;;;2076044;28;20279;-63
2022/02/06 00:44:15;;;;;;;13.30;2.03;;;;;;;;;;2075236;28;20034;-63
2022/02/06 00:45:34;;;;;;;15.48;2.45;;;;;;;;;;2075646;28;20046;-63
2022/02/06 00:46:55;;;;;;;8.25;1.70;;;;;;;;;;2077045;28;20069;-63
2022/02/06 00:48:18;;;;;;;10.10;2.72;;;;;;;;;;2076736;28;20447;-63
2022/02/06 00:49:39;;;;;;;10.63;2.47;;;;;;;;;;2074856;28;20042;-63
2022/02/06 00:51:11;;;;;;;13.00;2.30;;;;;;;;;;2075368;28;20034;-63
2022/02/06 00:52:37;;;;;;;10.77;2.03;;;;;;;;;;2075790;28;20026;-63
2022/02/06 00:53:56;;;;;;;11.40;2.05;;;;;;;;;;2075362;28;20030;-63
2022/02/06 00:55:15;;;;;;;12.82;2.42;;;;;;;;;;2076959;28;20069;-63
2022/02/06 00:56:34;;;;;;;11.00;2.55;;;;;;;;;;2076439;28;20116;-63
2022/02/06 00:57:53;;;;;;;14.32;2.00;;;;;;;;;;2076377;28;20034;-64
2022/02/06 00:59:12;;;;;;;11.75;2.28;;;;;;;;;;2074401;28;20014;-63
2022/02/06 01:00:31;;;;;;;7.95;1.95;;;;;;;;;;2075035;28;20511;-63
2022/02/06 01:01:50;;;;;;;9.15;1.95;;;;;;;;;;2075110;28;20042;-63
2022/02/06 01:03:09;;;;;;;10.35;2.25;;;;;;;;;;2075604;28;20458;-63
2022/02/06 01:04:33;;;;;;;10.23;2.10;;;;;;;;;;2075712;28;20026;-63
2022/02/06 01:05:52;;;;;;;12.50;2.10;;;;;;;;;;2076335;28;20064;-64
2022/02/06 01:07:11;;;;;;;12.13;2.10;;;;;;;;;;2075633;28;20029;-64
2022/02/06 01:08:30;;;;;;;9.57;2.05;;;;;;;;;;2075108;28;20038;-63
2022/02/06 01:09:50;;;;;;;9.35;2.03;;;;;;;;;;2074951;28;20030;-63
2022/02/06 01:11:10;;;;;;;9.70;1.83;;;;;;;;;;2076311;28;20491;-63
2022/02/06 01:12:32;;;;;;;9.45;1.75;;;;;;;;;;2075440;28;20030;-64
2022/02/06 01:14:02;;;;;;;8.52;1.95;;;;;;;;;;2074012;28;20034;-63
2022/02/06 01:15:30;;;;;;;8.65;1.95;;;;;;;;;;2075841;28;20030;-64
2022/02/06 01:17:12;;;;;;;9.10;2.70;;;;;;;;;;2075618;28;20050;-64
2022/02/06 01:18:39;;;;;;;9.48;1.80;;;;;;;;;;2076135;28;20387;-64
2022/02/06 01:21:41;;;;;;;10.73;1.50;;;;;;;;;;2075923;28;20105;-64
2022/02/06 01:23:22;;;;;;;10.13;1.65;;;;;;;;;;2075904;28;20444;-64
2022/02/06 01:24:49;;;;;;;8.98;1.55;;;;;;;;;;2074554;28;20534;-65
2022/02/06 01:26:18;;;;;;;6.25;1.52;;;;;;;;;;2076368;28;20484;-64
2022/02/06 01:27:43;;;;;;;11.57;1.98;;;;;;;;;;2075286;28;20034;-65
2022/02/06 01:29:16;;;;;;;8.18;1.75;;;;;;;;;;2073211;28;20042;-64
2022/02/06 01:32:08;;;;;;;9.30;2.00;;;;;;;;;;2074982;28;20363;-64
2022/02/06 01:33:33;;;;;;;5.82;1.38;;;;;;;;;;2074791;28;20483;-64
2022/02/06 01:35:02;;;;;;;8.30;1.60;;;;;;;;;;2074850;28;20046;-64
2022/02/06 01:36:45;;;;;;;8.52;1.90;;;;;;;;;;2076753;28;20491;-64
2022/02/06 01:40:58;;;;;;;7.68;1.70;;;;;;;;;;2075744;28;20236;-65
2022/02/06 01:42:32;;;;;;;9.57;1.77;;;;;;;;;;2075597;28;20384;-64
2022/02/06 01:43:59;;;;;;;4.15;1.40;;;;;;;;;;2075651;28;20457;-64
2022/02/06 02:02:45;;;;;;;8.15;1.70;;;;;;;;;;2076733;28;20033;-64
2022/02/06 02:03:42;;;;;;;8.70;1.77;;;;;;;;;;2078101;28;20057;-63
2022/02/06 02:09:56;;;;;;;12.88;2.53;;;;;;;;;;2075848;28;20030;-64
2022/02/06 02:26:25;;;;;;;10.73;1.55;;;;;;;;;;2075401;28;20029;-65
2022/02/06 02:28:03;;;;;;;9.70;1.67;;;;;;;;;;2076059;28;20025;-63
2022/02/06 02:31:21;;;;;;;6.57;1.17;;;;;;;;;;2075467;28;20418;-63
2022/02/06 02:32:25;;;;;;;6.47;1.45;;;;;;;;;;2078514;28;20038;-64
2022/02/06 02:46:29;;;;;;;5.60;1.58;;;;;;;;;;2074502;28;20049;-65
2022/02/06 02:47:51;;;;;;;4.68;1.30;;;;;;;;;;2075111;28;20029;-64
2022/02/06 02:49:15;;;;;;;5.35;1.52;;;;;;;;;;2075086;28;20038;-64
2022/02/06 02:50:38;;;;;;;6.03;1.75;;;;;;;;;;2075546;28;20124;-64
2022/02/06 02:52:02;;;;;;;5.70;1.30;;;;;;;;;;2075139;28;20144;-64
2022/02/06 02:54:43;;;;;;;3.95;1.13;;;;;;;;;;2074712;28;20021;-64
2022/02/06 02:56:23;;;;;;;4.28;1.45;;;;;;;;;;2073793;28;20022;-64
2022/02/06 02:58:01;;;;;;;8.32;1.55;;;;;;;;;;2075996;28;20030;-64
2022/02/06 02:59:33;;;;;;;7.45;1.27;;;;;;;;;;2075298;28;20022;-65
2022/02/06 03:01:12;;;;;;;7.03;1.25;;;;;;;;;;2076557;28;20025;-65
2022/02/06 03:02:31;;;;;;;5.20;1.50;;;;;;;;;;2074788;28;20041;-64
2022/02/06 03:03:49;;;;;;;4.97;1.45;;;;;;;;;;2071148;28;20026;-64
2022/02/06 03:05:08;;;;;;;7.22;1.63;;;;;;;;;;2070483;28;20040;-64
2022/02/06 03:06:27;;;;;;;6.32;1.20;;;;;;;;;;2075963;28;20033;-64
2022/02/06 03:07:48;;;;;;;5.75;1.17;;;;;;;;;;2076621;28;20403;-65
2022/02/06 03:09:07;;;;;;;9.75;1.75;;;;;;;;;;2071940;28;20026;-64
2022/02/06 03:10:26;;;;;;;6.55;1.10;;;;;;;;;;2075444;28;20472;-64
2022/02/06 03:11:45;;;;;;;11.57;2.00;;;;;;;;;;2074538;28;20030;-63
2022/02/06 03:13:07;;;;;;;9.00;1.35;;;;;;;;;;2074867;28;20025;-64
2022/02/06 03:14:39;;;;;;;5.05;1.50;;;;;;;;;;2074944;28;20043;-63
2022/02/06 03:17:33;;;;;;;3.60;1.00;;;;;;;;;;2075435;28;20026;-65
2022/02/06 03:18:59;;;;;;;3.78;0.85;;;;;;;;;;2075502;28;20022;-64
2022/02/06 03:20:20;;;;;;;2.45;1.00;;;;;;;;;;2075318;28;20053;-64
2022/02/06 03:21:39;;;;;;;7.68;1.00;;;;;;;;;;2075110;28;20128;-63
2022/02/06 03:23:03;;;;;;;5.13;1.10;;;;;;;;;;2074187;28;20034;-64
2022/02/06 03:24:27;;;;;;;7.43;0.80;;;;;;;;;;2074406;28;20061;-64
2022/02/06 03:27:08;;;;;;;3.95;1.00;;;;;;;;;;2074420;28;20034;-63
2022/02/06 03:28:27;;;;;;;6.05;1.15;;;;;;;;;;2074408;28;20379;-66
2022/02/06 03:29:47;;;;;;;2.88;1.05;;;;;;;;;;2076260;28;20037;-64
2022/02/06 03:31:06;;;;;;;4.57;1.05;;;;;;;;;;2074528;28;20058;-64
2022/02/06 03:32:25;;;;;;;4.43;0.98;;;;;;;;;;2075162;28;20034;-63
2022/02/06 03:33:47;;;;;;;4.38;1.00;;;;;;;;;;2074723;28;20029;-63
2022/02/06 03:35:06;;;;;;;3.63;0.73;;;;;;;;;;2075742;28;20104;-65
2022/02/06 03:36:24;;;;;;;3.42;0.82;;;;;;;;;;2074772;28;20037;-64
2022/02/06 03:37:43;;;;;;;2.63;0.80;;;;;;;;;;2075379;28;20030;-63
2022/02/06 03:39:03;;;;;;;3.63;0.80;;;;;;;;;;2075568;28;20022;-65
2022/02/06 03:40:26;;;;;;;2.55;0.80;;;;;;;;;;2079421;28;20026;-65
2022/02/06 03:43:16;;;;;;;7.43;0.93;;;;;;;;;;2074722;28;20058;-64
2022/02/06 03:44:41;;;;;;;2.97;0.85;;;;;;;;;;2075229;28;20239;-65
2022/02/06 03:46:18;;;;;;;1.67;0.63;;;;;;;;;;2075350;28;20034;-65
2022/02/06 03:47:54;;;;;;;3.08;0.88;;;;;;;;;;2074889;28;20571;-65
2022/02/06 03:49:20;;;;;;;1.98;0.90;;;;;;;;;;2075520;28;20445;-64
2022/02/06 03:50:45;;;;;;;2.08;0.77;;;;;;;;;;2074598;28;20042;-64
2022/02/06 03:52:04;;;;;;;2.50;0.95;;;;;;;;;;2074405;28;20026;-65
2022/02/06 03:53:26;;;;;;;4.88;1.35;;;;;;;;;;2075117;28;20026;-64
2022/02/06 03:54:45;;;;;;;4.18;1.00;;;;;;;;;;2075134;28;20034;-64
2022/02/06 03:56:04;;;;;;;5.43;0.93;;;;;;;;;;2075730;28;20022;-64
2022/02/06 03:57:24;;;;;;;3.03;0.70;;;;;;;;;;2073632;28;20030;-64
2022/02/06 03:58:42;;;;;;;7.45;1.20;;;;;;;;;;2075026;28;20034;-64
2022/02/06 04:00:02;;;;;;;3.47;1.00;;;;;;;;;;2074974;28;20033;-64
2022/02/06 04:01:20;;;;;;;5.05;1.35;;;;;;;;;;2075298;28;20032;-64
2022/02/06 04:02:39;;;;;;;3.58;0.95;;;;;;;;;;2074341;28;20045;-64
2022/02/06 04:03:58;;;;;;;4.68;0.77;;;;;;;;;;2074912;28;20425;-64
2022/02/06 04:05:18;;;;;;;3.65;1.02;;;;;;;;;;2074495;28;20033;-64
2022/02/06 04:06:38;;;;;;;3.05;0.80;;;;;;;;;;2074892;28;20026;-65
2022/02/06 04:07:57;;;;;;;2.33;0.70;;;;;;;;;;2074254;28;20034;-64
2022/02/06 04:09:21;;;;;;;4.68;0.60;;;;;;;;;;2075139;28;20030;-64
2022/02/06 04:10:45;;;;;;;4.00;1.20;;;;;;;;;;2077575;28;20029;-64
2022/02/06 04:12:07;;;;;;;3.55;0.70;;;;;;;;;;2076613;28;20410;-64
2022/02/06 04:13:27;;;;;;;4.47;0.88;;;;;;;;;;2075014;28;20415;-64
2022/02/06 04:15:03;;;;;;;4.57;1.02;;;;;;;;;;2074283;28;20030;-64
2022/02/06 04:16:50;;;;;;;3.95;0.60;;;;;;;;;;2074596;28;20105;-64
2022/02/06 04:18:16;;;;;;;2.30;0.88;;;;;;;;;;2074815;28;20030;-63
2022/02/06 04:19:35;;;;;;;5.57;1.13;;;;;;;;;;2076276;28;20025;-62
2022/02/06 04:20:54;;;;;;;4.53;0.60;;;;;;;;;;2076219;28;20038;-65
2022/02/06 04:22:13;;;;;;;2.20;0.70;;;;;;;;;;2076362;28;20116;-63
2022/02/06 04:23:32;;;;;;;2.88;0.55;;;;;;;;;;2076325;28;20038;-63
2022/02/06 04:24:51;;;;;;;3.22;0.98;;;;;;;;;;2076149;28;20474;-64
2022/02/06 04:26:10;;;;;;;1.95;0.60;;;;;;;;;;2076613;28;20026;-64
2022/02/06 04:27:30;;;;;;;1.35;0.63;;;;;;;;;;2075892;28;20062;-63
2022/02/06 04:28:49;;;;;;;2.30;0.70;;;;;;;;;;2077043;28;20033;-64
2022/02/06 04:30:08;;;;;;;2.85;1.10;;;;;;;;;;2075786;28;20037;-65
2022/02/06 04:31:27;;;;;;;1.55;1.00;;;;;;;;;;2074614;27;20022;-64
2022/02/06 04:32:46;;;;;;;1.58;0.65;;;;;;;;;;2076138;28;20034;-64
2022/02/06 04:34:05;;;;;;;1.48;0.60;;;;;;;;;;2075670;28;20112;-64
2022/02/06 04:35:30;;;;;;;2.67;0.73;;;;;;;;;;2075822;28;20037;-63
2022/02/06 04:40:43;;;;;;;2.90;0.82;;;;;;;;;;2113680;28;20111;-64
2022/02/06 04:42:18;;;;;;;4.40;0.88;;;;;;;;;;2083608;28;20038;-64
2022/02/06 04:45:36;;;;;;;3.10;1.02;;;;;;;;;;2076045;28;20507;-64
2022/02/06 05:15:33;;;;;;;0.30;0.30;;;;;;;;;;2074357;28;20116;-63
2022/02/06 05:22:05;;;;;;;0.60;0.40;;;;;;;;;;2076306;28;20108;-62
2022/02/06 05:23:47;;;;;;;1.23;0.55;;;;;;;;;;2074660;28;20395;-64
2022/02/06 05:26:59;;;;;;;0.73;0.30;;;;;;;;;;2075753;28;20021;-64
2022/02/06 05:32:34;;;;;;;1.45;0.20;;;;;;;;;;2075857;28;20227;-64
2022/02/06 05:33:53;;;;;;;0.40;0.40;;;;;;;;;;2075060;28;20471;-64
2022/02/06 05:35:12;;;;;;;1.85;0.30;;;;;;;;;;2076043;28;20038;-65
2022/02/06 05:36:31;;;;;;;1.95;0.25;;;;;;;;;;2075612;28;20157;-65
2022/02/06 05:37:50;;;;;;;0.50;0.50;;;;;;;;;;2074252;28;20428;-65
2022/02/06 05:39:09;;;;;;;0.70;0.20;;;;;;;;;;2074896;28;20399;-65
2022/02/06 05:40:28;;;;;;;0.82;0.20;;;;;;;;;;2075694;28;20445;-64
2022/02/06 05:41:47;;;;;;;1.63;0.30;;;;;;;;;;2076090;28;20046;-65
2022/02/06 05:43:06;;;;;;;1.40;0.40;;;;;;;;;;2075639;28;20022;-64
2022/02/06 05:44:25;;;;;;;0.32;0.20;;;;;;;;;;2074171;28;20069;-64
2022/02/06 05:45:44;;;;;;;1.05;0.30;;;;;;;;;;2075409;28;20037;-64
2022/02/06 05:47:03;;;;;;;0.73;0.20;;;;;;;;;;2076589;28;20041;-64
2022/02/06 05:48:22;;;;;;;0.40;0.30;;;;;;;;;;2077224;28;20033;-64
2022/02/06 05:49:41;;;;;;;0.20;0.20;;;;;;;;;;2075122;28;20130;-64
2022/02/06 05:51:00;;;;;;;0.80;0.22;;;;;;;;;;2075015;28;20029;-63
2022/02/06 05:52:19;;;;;;;0.98;0.20;;;;;;;;;;2075793;28;20112;-64
2022/02/06 05:53:39;;;;;;;1.23;0.22;;;;;;;;;;2076111;28;20037;-64
2022/02/06 05:54:58;;;;;;;1.23;0.30;;;;;;;;;;2074349;28;20025;-64
2022/02/06 05:56:20;;;;;;;0.10;0.10;;;;;;;;;;2072270;28;20105;-64
2022/02/06 05:57:40;;;;;;;0.35;0.20;;;;;;;;;;2076510;28;20038;-64
2022/02/06 05:58:59;;;;;;;0.20;0.17;;;;;;;;;;2075638;28;20038;-64
2022/02/06 06:00:18;;;;;;;0.32;0.10;;;;;;;;;;2075397;28;20117;-64
2022/02/06 06:01:37;;;;;;;0.10;0.10;;;;;;;;;;2075838;28;20022;-64
2022/02/06 06:02:57;;;;;;;1.70;0.50;;;;;;;;;;2075236;28;20088;-64
2022/02/06 06:04:16;;;;;;;0.98;0.22;;;;;;;;;;2076259;28;20033;-64
2022/02/06 06:05:36;;;;;;;0.40;0.30;;;;;;;;;;2074875;28;20053;-64
2022/02/06 06:06:54;;;;;;;0.88;0.20;;;;;;;;;;2075244;28;20065;-64
2022/02/06 06:08:13;;;;;;;0.82;0.10;;;;;;;;;;2075639;28;20033;-64
2022/02/06 06:09:32;;;;;;;0.90;0.38;;;;;;;;;;2076204;28;20029;-64
2022/02/06 06:10:51;;;;;;;1.80;0.25;;;;;;;;;;2074976;28;20042;-64
2022/02/06 06:12:10;;;;;;;1.00;0.30;;;;;;;;;;2074878;28;20034;-64
2022/02/06 06:13:28;;;;;;;1.05;0.20;;;;;;;;;;2075794;28;20109;-64
2022/02/06 06:14:48;;;;;;;2.20;0.30;;;;;;;;;;2075346;28;20514;-64
2022/02/06 06:16:08;;;;;;;1.25;0.40;;;;;;;;;;2076308;28;20041;-64
2022/02/06 06:17:27;;;;;;;1.38;0.20;;;;;;;;;;2077829;28;20022;-64
2022/02/06 06:18:47;;;;;;;1.13;0.20;;;;;;;;;;2074560;28;20045;-64
2022/02/06 06:20:11;;;;;;;1.17;0.28;;;;;;;;;;2074631;28;20042;-64
2022/02/06 06:21:35;;;;;;;0.70;0.38;;;;;;;;;;2075262;28;20521;-64
2022/02/06 06:22:54;;;;;;;3.72;0.20;;;;;;;;;;2076389;28;20527;-64
2022/02/06 06:24:18;;;;;;;0.88;0.10;;;;;;;;;;2076309;28;20418;-64
2022/02/06 06:25:41;;;;;;;;;;;;;;;;;;2076440;28;20041;-64
2022/02/06 06:27:00;;;;;;;1.30;0.40;;;;;;;;;;2073892;28;19928;-64
2022/02/06 06:28:19;;;;;;;1.45;0.30;;;;;;;;;;2075631;28;20041;-64
2022/02/06 06:29:38;;;;;;;1.83;0.50;;;;;;;;;;2074004;28;20448;-64
2022/02/06 06:30:58;;;;;;;0.98;0.43;;;;;;;;;;2074624;28;20026;-64
2022/02/06 06:32:17;;;;;;;0.30;0.30;;;;;;;;;;2074392;28;20038;-64
2022/02/06 06:33:36;;;;;;;2.85;0.32;;;;;;;;;;2075551;28;20394;-63
2022/02/06 06:34:55;;;;;;;4.00;0.35;;;;;;;;;;2074544;28;20099;-64
2022/02/06 06:36:15;;;;;;;2.92;0.65;;;;;;;;;;2075314;28;20026;-64
2022/02/06 06:37:38;;;;;;;0.90;0.35;;;;;;;;;;2075602;28;20034;-64
2022/02/06 06:38:57;;;;;;;1.80;0.30;;;;;;;;;;2075394;28;20466;-64
2022/02/06 06:40:16;;;;;;;6.88;0.65;;;;;;;;;;2075283;28;20033;-65
2022/02/06 06:41:35;;;;;;;5.40;0.40;;;;;;;;;;2074737;28;20705;-64
2022/02/06 06:42:54;;;;;;;0.75;0.40;;;;;;;;;;2070246;28;20037;-63
2022/02/06 06:44:13;;;;;;;0.77;0.30;;;;;;;;;;2073981;28;20494;-63
2022/02/06 06:45:32;;;;;;;2.97;0.75;;;;;;;;;;2073809;27;20038;-64
2022/02/06 06:46:50;;;;;;;1.52;0.50;;;;;;;;;;2074884;28;20033;-64
2022/02/06 06:48:09;;;;;;;0.60;0.40;;;;;;;;;;2076273;28;20033;-64
2022/02/06 06:49:28;;;;;;;5.30;0.52;;;;;;;;;;2075062;28;20429;-65
2022/02/06 06:50:48;;;;;;;1.83;0.32;;;;;;;;;;2074961;28;20041;-63
2022/02/06 06:52:08;;;;;;;1.05;0.57;;;;;;;;;;2075163;28;20388;-65
2022/02/06 06:53:28;;;;;;;1.23;0.30;;;;;;;;;;2074428;28;20030;-65
2022/02/06 06:54:51;;;;;;;1.50;0.40;;;;;;;;;;2075197;28;20025;-64
2022/02/06 06:56:16;;;;;;;2.22;0.70;;;;;;;;;;2074841;28;20172;-64
2022/02/06 06:57:40;;;;;;;3.28;0.52;;;;;;;;;;2072126;28;20043;-64
2022/02/06 06:58:59;;;;;;;2.50;0.43;;;;;;;;;;2075429;27;20129;-64
2022/02/06 07:00:37;;;;;;;1.73;0.25;;;;;;;;;;2074767;28;20022;-64
2022/02/06 07:03:45;;;;;;;1.42;0.50;;;;;;;;;;2081728;28;20037;-63
2022/02/06 07:05:04;;;;;;;1.75;0.40;;;;;;;;;;2074572;28;20034;-64
2022/02/06 07:06:23;;;;;;;4.53;0.90;;;;;;;;;;2075029;28;20064;-64
2022/02/06 07:07:42;;;;;;;2.47;0.40;;;;;;;;;;2074421;28;20026;-64
2022/02/06 07:09:01;;;;;;;5.40;0.63;;;;;;;;;;2074474;28;20484;-64
2022/02/06 07:10:20;;;;;;;1.10;0.30;;;;;;;;;;2074716;28;20037;-64
2022/02/06 07:11:39;;;;;;;1.80;0.55;;;;;;;;;;2074851;28;20030;-63
2022/02/06 07:12:58;;;;;;;2.92;0.40;;;;;;;;;;2072329;28;20057;-63
2022/02/06 07:14:17;;;;;;;3.33;0.40;;;;;;;;;;2076733;28;20061;-64
2022/02/06 07:15:36;;;;;;;4.20;0.70;;;;;;;;;;2073511;28;20033;-64
2022/02/06 07:16:55;;;;;;;1.95;0.40;;;;;;;;;;2075786;28;20025;-64
2022/02/06 07:18:14;;;;;;;2.55;0.77;;;;;;;;;;2074560;28;20068;-64
2022/02/06 07:19:33;;;;;;;1.58;0.50;;;;;;;;;;2074435;28;20017;-64
2022/02/06 07:20:52;;;;;;;3.20;0.60;;;;;;;;;;2074992;28;20121;-64
2022/02/06 07:22:15;;;;;;;2.53;0.47;;;;;;;;;;2074278;28;20018;-64
2022/02/06 07:23:33;;;;;;;2.97;0.67;;;;;;;;;;2075786;28;20029;-64
2022/02/06 07:24:54;;;;;;;4.35;0.60;;;;;;;;;;2074574;28;20279;-65
2022/02/06 07:26:18;;;;;;;5.45;0.50;;;;;;;;;;2076595;28;20049;-64
2022/02/06 07:27:40;;;;;;;5.18;0.55;;;;;;;;;;2075316;28;20495;-64
2022/02/06 07:29:01;;;;;;;3.60;0.77;;;;;;;;;;2075191;28;20034;-64
2022/02/06 07:30:20;;;;;;;1.85;0.90;;;;;;;;;;2074778;28;20057;-64
2022/02/06 07:31:42;;;;;;;6.55;1.15;;;;;;;;;;2075558;28;20034;-62
2022/02/06 07:33:01;;;;;;;3.97;0.90;;;;;;;;;;2075959;28;20479;-63
2022/02/06 07:34:20;;;;;;;6.32;0.90;;;;;;;;;;2073947;28;20037;-62
2022/02/06 07:35:38;;;;;;;4.40;0.80;;;;;;;;;;2069094;28;20134;-62
2022/02/06 07:36:57;;;;;;;3.88;0.77;;;;;;;;;;2075648;28;20606;-63
2022/02/06 07:38:16;;;;;;;4.72;0.75;;;;;;;;;;2075033;28;20029;-64
2022/02/06 07:39:35;;;;;;;6.40;1.20;;;;;;;;;;2074210;28;20027;-63
2022/02/06 07:40:54;;;;;;;3.22;0.55;;;;;;;;;;2073919;28;20121;-62
2022/02/06 07:42:13;;;;;;;7.43;1.25;;;;;;;;;;2073402;28;20042;-62
2022/02/06 07:43:32;;;;;;;2.05;0.70;;;;;;;;;;2074447;28;20025;-63
2022/02/06 07:44:51;;;;;;;9.32;1.13;;;;;;;;;;2074314;28;20049;-62
2022/02/06 07:46:11;;;;;;;4.13;0.85;;;;;;;;;;2073494;28;20441;-63
2022/02/06 07:47:30;;;;;;;6.80;0.93;;;;;;;;;;2075036;28;20121;-62
2022/02/06 07:48:49;;;;;;;5.00;1.08;;;;;;;;;;2074085;28;20025;-62
2022/02/06 07:50:09;;;;;;;4.80;0.80;;;;;;;;;;2075837;28;20026;-63
2022/02/06 07:51:28;;;;;;;5.28;0.90;;;;;;;;;;2075047;28;20029;-62
2022/02/06 07:52:48;;;;;;;3.42;1.00;;;;;;;;;;2074825;28;20038;-62
2022/02/06 07:54:07;;;;;;;4.82;1.15;;;;;;;;;;2074673;28;20484;-62
2022/02/06 07:55:27;;;;;;;5.60;1.08;;;;;;;;;;2076793;28;20034;-62
2022/02/06 07:56:46;;;;;;;4.82;1.00;;;;;;;;;;2077554;27;20491;-62
2022/02/06 07:58:05;;;;;;;3.63;1.40;;;;;;;;;;2076197;28;20038;-62
2022/02/06 07:59:24;;;;;;;4.85;1.15;;;;;;;;;;2076399;28;20093;-62
2022/02/06 08:00:43;;;;;;;4.03;1.60;;;;;;;;;;2077140;28;20050;-62
2022/02/06 08:02:02;;;;;;;8.10;1.33;;;;;;;;;;2076048;28;20034;-63
2022/02/06 08:03:21;;;;;;;3.00;1.02;;;;;;;;;;2076287;28;20029;-63
2022/02/06 08:04:40;;;;;;;4.35;1.33;;;;;;;;;;2074279;28;20034;-62
2022/02/06 08:05:59;;;;;;;4.95;0.90;;;;;;;;;;2074675;28;20552;-63
2022/02/06 08:07:18;;;;;;;4.45;1.00;;;;;;;;;;2076601;28;20037;-63
2022/02/06 08:08:37;;;;;;;3.40;1.00;;;;;;;;;;2076440;28;20034;-63
2022/02/06 08:09:58;;;;;;;5.10;0.90;;;;;;;;;;2075326;28;20037;-63
2022/02/06 08:11:17;;;;;;;5.75;1.30;;;;;;;;;;2074709;28;20034;-63
2022/02/06 08:12:44;;;;;;;3.28;0.82;;;;;;;;;;2075119;28;20030;-63
2022/02/06 08:14:03;;;;;;;4.60;1.02;;;;;;;;;;2076234;27;20029;-63
2022/02/06 08:15:23;;;;;;;8.40;1.17;;;;;;;;;;2073950;28;20399;-63
2022/02/06 08:16:42;;;;;;;6.97;1.35;;;;;;;;;;2075659;28;20061;-63
2022/02/06 08:18:01;;;;;;;6.93;1.23;;;;;;;;;;2075079;28;20030;-63
2022/02/06 08:19:20;;;;;;;3.58;0.60;;;;;;;;;;2074202;28;20038;-63
2022/02/06 08:20:40;;;;;;;4.28;0.80;;;;;;;;;;2075543;28;20452;-62
2022/02/06 08:21:59;;;;;;;3.78;0.75;;;;;;;;;;2075261;28;20026;-63
2022/02/06 08:23:18;;;;;;;6.25;1.02;;;;;;;;;;2075122;28;20592;-63
2022/02/06 08:24:37;;;;;;;6.60;1.10;;;;;;;;;;2076107;28;20391;-63
2022/02/06 08:25:59;;;;;;;10.13;1.35;;;;;;;;;;2076558;28;20461;-63
2022/02/06 08:27:19;;;;;;;6.65;1.10;;;;;;;;;;2074657;28;20491;-63
2022/02/06 08:28:38;;;;;;;4.22;1.30;;;;;;;;;;2075381;28;20037;-62
2022/02/06 08:29:58;;;;;;;3.97;0.90;;;;;;;;;;2076958;28;20029;-63
2022/02/06 08:31:17;;;;;;;7.50;2.15;;;;;;;;;;2077342;28;20547;-63
2022/02/06 08:32:37;;;;;;;5.97;1.10;;;;;;;;;;2075535;28;20034;-63
2022/02/06 08:33:56;;;;;;;10.85;1.52;;;;;;;;;;2076188;28;20022;-63
2022/02/06 08:35:15;;;;;;;6.70;1.38;;;;;;;;;;2075336;28;20033;-63
2022/02/06 08:36:34;;;;;;;6.90;1.48;;;;;;;;;;2076309;28;20065;-63
2022/02/06 08:37:53;;;;;;;15.82;2.42;;;;;;;;;;2076390;28;20022;-63
2022/02/06 08:39:12;;;;;;;6.60;1.40;;;;;;;;;;2076144;28;20018;-63
2022/02/06 08:40:31;;;;;;;7.40;1.40;;;;;;;;;;2076446;28;20021;-63
2022/02/06 08:41:50;;;;;;;5.50;1.00;;;;;;;;;;2076277;28;20030;-63
2022/02/06 08:43:09;;;;;;;5.72;1.13;;;;;;;;;;2075301;28;20033;-62
2022/02/06 08:44:28;;;;;;;7.63;1.50;;;;;;;;;;2074939;28;20034;-63
2022/02/06 08:45:47;;;;;;;7.15;1.77;;;;;;;;;;2075591;28;20056;-62
2022/02/06 08:47:07;;;;;;;6.05;1.65;;;;;;;;;;2075019;28;20026;-63
2022/02/06 08:48:25;;;;;;;4.53;1.15;;;;;;;;;;2075860;28;20041;-63
2022/02/06 08:49:45;;;;;;;9.52;2.30;;;;;;;;;;2076413;28;20112;-61
2022/02/06 08:51:06;;;;;;;7.68;1.30;;;;;;;;;;2075652;28;20030;-62
2022/02/06 08:52:25;;;;;;;10.18;1.10;;;;;;;;;;2074456;28;20474;-62
2022/02/06 08:53:44;;;;;;;7.45;1.33;;;;;;;;;;2075090;28;20034;-63
2022/02/06 08:55:06;;;;;;;6.55;1.75;;;;;;;;;;2075469;28;20075;-62
2022/02/06 08:56:27;;;;;;;6.30;1.70;;;;;;;;;;2076416;28;20337;-63
2022/02/06 08:57:50;;;;;;;4.65;0.98;;;;;;;;;;2077402;27;20026;-62
2022/02/06 08:59:10;;;;;;;7.38;1.40;;;;;;;;;;2075797;28;20025;-62
2022/02/06 09:00:29;;;;;;;5.15;1.48;;;;;;;;;;2075635;28;20037;-62
2022/02/06 09:01:48;;;;;;;6.85;1.63;;;;;;;;;;2076354;28;20038;-62
2022/02/06 09:03:07;;;;;;;8.23;1.88;;;;;;;;;;2074605;28;20064;-63
2022/02/06 09:04:26;;;;;;;7.03;0.88;;;;;;;;;;2075340;28;20029;-63
2022/02/06 09:05:45;;;;;;;5.43;1.42;;;;;;;;;;2076356;28;20038;-62
2022/02/06 09:07:04;;;;;;;8.60;1.52;;;;;;;;;;2075703;28;20053;-62
2022/02/06 09:08:23;;;;;;;4.68;1.75;;;;;;;;;;2076217;28;20033;-62
2022/02/06 09:09:47;;;;;;;7.60;1.75;;;;;;;;;;2075507;28;20030;-63
2022/02/06 09:11:06;;;;;;;11.68;1.52;;;;;;;;;;2076568;28;20515;-62
2022/02/06 09:12:27;;;;;;;4.57;1.58;;;;;;;;;;2074844;28;20030;-62
2022/02/06 09:13:46;;;;;;;9.65;1.50;;;;;;;;;;2075390;28;20121;-62
2022/02/06 09:15:05;;;;;;;7.45;1.35;;;;;;;;;;2073324;28;20061;-62
2022/02/06 09:16:27;;;;;;;16.42;1.70;;;;;;;;;;2074954;28;20033;-61
2022/02/06 09:17:47;;;;;;;4.30;1.17;;;;;;;;;;2074015;28;20026;-61
2022/02/06 09:19:06;;;;;;;5.93;1.80;;;;;;;;;;2074603;28;20030;-61
2022/02/06 09:20:26;;;;;;;8.82;1.80;;;;;;;;;;2075344;28;20037;-62
2022/02/06 09:21:45;;;;;;;9.10;1.48;;;;;;;;;;2076196;28;20030;-62
2022/02/06 09:23:04;;;;;;;9.23;2.63;;;;;;;;;;2075477;28;20034;-62
2022/02/06 09:24:23;;;;;;;7.50;1.20;;;;;;;;;;2075847;28;20086;-62
2022/02/06 09:25:43;;;;;;;4.53;1.40;;;;;;;;;;2074876;28;20148;-62
2022/02/06 09:27:02;;;;;;;9.00;1.50;;;;;;;;;;2075120;28;20478;-62
2022/02/06 09:28:21;;;;;;;15.25;2.13;;;;;;;;;;2075146;28;20037;-63
2022/02/06 09:29:42;;;;;;;10.95;1.25;;;;;;;;;;2075904;28;20348;-62
2022/02/06 09:31:01;;;;;;;12.10;1.95;;;;;;;;;;2075812;28;20476;-61
2022/02/06 09:36:17;;;;;;;9.93;1.83;;;;;;;;;;2075564;28;20053;-62
2022/02/06 09:37:36;;;;;;;4.38;1.40;;;;;;;;;;2076793;27;20021;-62
2022/02/06 09:38:55;;;;;;;6.28;1.85;;;;;;;;;;2074465;28;21249;-62
2022/02/06 09:40:15;;;;;;;11.02;1.77;;;;;;;;;;2073984;28;20495;-62
2022/02/06 09:41:35;;;;;;;9.40;1.83;;;;;;;;;;2075162;28;20033;-62
2022/02/06 09:42:58;;;;;;;9.50;2.60;;;;;;;;;;2071138;28;20117;-62
2022/02/06 09:44:20;;;;;;;14.23;1.38;;;;;;;;;;2074704;28;20108;-62
2022/02/06 09:45:40;;;;;;;13.63;1.80;;;;;;;;;;2075507;27;20087;-62
2022/02/06 09:46:59;;;;;;;11.98;1.77;;;;;;;;;;2074585;28;20038;-62
2022/02/06 09:48:19;;;;;;;10.00;1.80;;;;;;;;;;2074745;28;20033;-62
2022/02/06 09:49:41;;;;;;;15.45;2.45;;;;;;;;;;2075414;28;20047;-62
2022/02/06 09:51:00;;;;;;;13.13;2.30;;;;;;;;;;2075205;28;20033;-63
2022/02/06 09:52:25;;;;;;;10.88;1.70;;;;;;;;;;2075030;28;20053;-62
2022/02/06 09:53:44;;;;;;;15.35;2.38;;;;;;;;;;2074707;28;20026;-62
2022/02/06 09:55:08;;;;;;;12.98;1.88;;;;;;;;;;2076610;27;20034;-63
2022/02/06 09:56:30;;;;;;;8.57;1.30;;;;;;;;;;2074781;28;20116;-62
2022/02/06 09:59:20;;;;;;;13.15;2.78;;;;;;;;;;2075679;28;20025;-62
2022/02/06 10:00:39;;;;;;;11.43;2.13;;;;;;;;;;2075956;28;20034;-62
2022/02/06 10:01:58;;;;;;;10.38;2.20;;;;;;;;;;2074763;28;20507;-62
2022/02/06 10:03:19;;;;;;;14.50;1.85;;;;;;;;;;2074323;28;20046;-62
2022/02/06 10:04:39;;;;;;;5.10;1.83;;;;;;;;;;2074235;28;20025;-62
2022/02/06 10:05:58;;;;;;;12.55;2.70;;;;;;;;;;2073908;28;20026;-63
2022/02/06 10:07:22;;;;;;;12.90;1.90;;;;;;;;;;2075931;28;20030;-63
2022/02/06 10:08:43;;;;;;;9.30;1.95;;;;;;;;;;2076450;27;20788;-65
2022/02/06 10:10:04;;;;;;;13.77;2.35;;;;;;;;;;2076429;28;20402;-63